createdAt,value
2023-04-12T00:02:02.642Z,17.30
2023-04-12T00:04:34.844Z,16.85
2023-04-12T00:07:03.634Z,16.95
2023-04-12T00:09:32.610Z,15.38
2023-04-12T00:12:00.578Z,15.77
2023-04-12T00:14:28.955Z,15.50
2023-04-12T00:17:01.642Z,15.95
2023-04-12T00:19:31.650Z,14.27
2023-04-12T00:22:05.329Z,14.77
2023-04-12T00:24:34.208Z,15.43
2023-04-12T00:27:02.773Z,15.25
2023-04-12T00:29:37.853Z,15.77
2023-04-12T00:32:07.049Z,15.65
2023-04-12T00:34:35.822Z,15.05
2023-04-12T00:37:08.033Z,16.05
2023-04-12T00:39:37.667Z,15.55
2023-04-12T00:42:06.764Z,15.75
2023-04-12T00:44:35.556Z,15.20
2023-04-12T00:47:06.229Z,15.43
2023-04-12T00:49:34.887Z,15.23
2023-04-12T00:52:05.323Z,19.02
2023-04-12T00:54:34.797Z,21.17
2023-04-12T00:57:03.299Z,21.48
2023-04-12T00:59:32.958Z,19.83
2023-04-12T01:02:03.513Z,18.92
2023-04-12T01:04:35.319Z,19.63
2023-04-12T01:08:05.116Z,21.17
2023-04-12T01:10:36.057Z,23.25
2023-04-12T01:13:12.008Z,25.10
2023-04-12T01:16:08.116Z,22.05
2023-04-12T01:18:41.726Z,18.77
2023-04-12T01:21:41.287Z,17.23
2023-04-12T01:24:13.825Z,15.65
2023-04-12T01:26:44.709Z,14.63
2023-04-12T01:29:16.923Z,13.63
2023-04-12T01:31:59.885Z,12.63
2023-04-12T01:34:32.681Z,12.85
2023-04-12T01:37:05.302Z,11.50
2023-04-12T01:39:34.140Z,10.90
2023-04-12T01:42:04.759Z,11.32
2023-04-12T01:44:33.147Z,11.02
2023-04-12T01:47:01.330Z,10.23
2023-04-12T01:49:36.320Z,10.02
2023-04-12T01:52:14.591Z,10.82
2023-04-12T01:54:44.551Z,10.02
2023-04-12T01:57:12.711Z,10.27
2023-04-12T01:59:42.418Z,10.05
2023-04-12T02:02:14.006Z,10.88
2023-04-12T02:04:44.824Z,10.30
2023-04-12T02:07:14.061Z,10.90
2023-04-12T02:09:52.874Z,11.27
2023-04-12T02:12:30.897Z,10.95
2023-04-12T02:15:00.548Z,12.68
2023-04-12T02:17:37.464Z,12.75
2023-04-12T02:20:12.617Z,13.55
2023-04-12T02:22:42.007Z,14.48
2023-04-12T02:25:13.700Z,14.18
2023-04-12T02:27:44.395Z,15.25
2023-04-12T02:30:15.424Z,16.88
2023-04-12T02:32:48.369Z,15.60
2023-04-12T02:35:25.564Z,16.42
2023-04-12T02:38:08.047Z,15.35
2023-04-12T02:40:42.957Z,15.23
2023-04-12T02:43:17.006Z,15.00
2023-04-12T02:45:48.427Z,17.13
2023-04-12T02:48:16.683Z,16.88
2023-04-12T02:50:45.667Z,17.02
2023-04-12T02:53:22.079Z,16.65
2023-04-12T02:56:12.336Z,16.02
2023-04-12T02:58:40.774Z,15.38
2023-04-12T03:01:13.577Z,13.98
2023-04-12T03:04:02.900Z,13.18
2023-04-12T03:06:52.680Z,12.07
2023-04-12T03:09:30.132Z,12.38
2023-04-12T03:11:58.571Z,11.70
2023-04-12T03:14:26.789Z,11.55
2023-04-12T03:16:54.937Z,12.35
2023-04-12T03:19:24.729Z,11.90
2023-04-12T03:22:00.166Z,12.23
2023-04-12T03:24:30.481Z,11.82
2023-04-12T03:26:59.169Z,11.77
2023-04-12T03:29:28.283Z,12.15
2023-04-12T03:31:58.244Z,11.50
2023-04-12T03:34:32.437Z,12.02
2023-04-12T03:37:10.142Z,12.63
2023-04-12T03:39:48.336Z,12.32
2023-04-12T03:42:32.196Z,12.75
2023-04-12T03:45:07.107Z,13.55
2023-04-12T03:47:35.917Z,12.00
2023-04-12T03:52:41.904Z,13.03
2023-04-12T03:55:10.210Z,11.90
2023-04-12T03:57:39.718Z,12.45
2023-04-12T04:00:10.531Z,11.25
2023-04-12T04:03:11.128Z,11.18
2023-04-12T04:05:48.801Z,11.80
2023-04-12T04:08:20.695Z,12.13
2023-04-12T04:10:53.061Z,10.57
2023-04-12T04:13:34.891Z,11.35
2023-04-12T04:16:09.935Z,11.43
2023-04-12T04:18:40.039Z,11.35
2023-04-12T04:21:10.872Z,10.75
2023-04-12T04:23:44.717Z,10.60
2023-04-12T04:26:20.677Z,11.10
2023-04-12T04:29:03.975Z,10.88
2023-04-12T04:31:38.018Z,9.65
2023-04-12T04:34:10.508Z,10.73
2023-04-12T04:36:43.979Z,10.30
2023-04-12T04:39:17.971Z,10.68
2023-04-12T04:41:46.993Z,11.10
2023-04-12T04:44:26.164Z,10.63
2023-04-12T04:46:59.335Z,10.65
2023-04-12T04:49:34.030Z,10.27
2023-04-12T04:52:09.646Z,10.10
2023-04-12T04:54:38.295Z,10.73
2023-04-12T04:57:12.521Z,9.98
2023-04-12T04:59:42.415Z,10.15
2023-04-12T05:02:19.332Z,10.77
2023-04-12T05:04:50.210Z,11.57
2023-04-12T05:07:21.700Z,12.20
2023-04-12T05:09:51.001Z,13.27
2023-04-12T05:12:21.673Z,12.95
2023-04-12T05:15:10.602Z,13.18
2023-04-12T05:17:42.925Z,13.77
2023-04-12T05:20:13.749Z,13.77
2023-04-12T05:22:42.521Z,13.15
2023-04-12T05:25:11.619Z,13.48
2023-04-12T05:27:56.309Z,14.35
2023-04-12T05:30:24.701Z,12.77
2023-04-12T05:32:53.238Z,13.23
2023-04-12T05:35:23.235Z,11.93
2023-04-12T05:37:55.578Z,12.32
2023-04-12T05:40:26.670Z,12.85
2023-04-12T05:42:59.361Z,12.18
2023-04-12T05:45:33.020Z,12.43
2023-04-12T05:48:04.737Z,12.57
2023-04-12T05:50:33.245Z,12.57
2023-04-12T05:53:02.468Z,13.32
2023-04-12T05:55:34.900Z,12.68
2023-04-12T05:58:04.219Z,11.73
2023-04-12T06:00:33.984Z,13.48
2023-04-12T06:03:05.089Z,13.35
2023-04-12T06:05:37.851Z,13.05
2023-04-12T06:08:14.816Z,13.63
2023-04-12T06:10:56.350Z,13.77
2023-04-12T06:13:31.893Z,10.38
2023-04-12T06:16:01.014Z,11.85
2023-04-12T06:18:31.134Z,10.50
2023-04-12T06:21:03.003Z,9.90
2023-04-12T06:23:31.609Z,9.60
2023-04-12T06:26:00.285Z,9.43
2023-04-12T06:28:34.360Z,8.75
2023-04-12T06:31:06.897Z,10.68
2023-04-12T06:33:40.017Z,8.15
2023-04-12T06:36:15.716Z,8.80
2023-04-12T06:38:44.974Z,8.75
2023-04-12T06:41:14.868Z,9.02
2023-04-12T06:43:47.653Z,9.27
2023-04-12T06:46:24.012Z,10.15
2023-04-12T06:49:13.344Z,10.85
2023-04-12T06:51:46.930Z,11.20
2023-04-12T06:54:20.008Z,12.03
2023-04-12T06:56:51.248Z,10.20
2023-04-12T06:59:19.496Z,11.82
2023-04-12T07:01:54.936Z,11.73
2023-04-12T07:04:23.406Z,12.63
2023-04-12T07:06:57.098Z,12.07
2023-04-12T07:09:27.087Z,11.82
2023-04-12T07:11:55.617Z,12.25
2023-04-12T07:14:26.558Z,11.60
2023-04-12T07:16:55.206Z,11.60
2023-04-12T07:19:23.350Z,11.57
2023-04-12T07:21:51.859Z,11.65
2023-04-12T07:24:20.974Z,11.20
2023-04-12T07:26:50.193Z,11.95
2023-04-12T07:29:23.914Z,11.85
2023-04-12T07:31:54.495Z,12.05
2023-04-12T07:34:26.347Z,11.75
2023-04-12T07:36:57.177Z,11.50
2023-04-12T07:39:25.068Z,12.63
2023-04-12T07:41:59.777Z,13.00
2023-04-12T07:44:28.195Z,13.05
2023-04-12T07:46:58.246Z,13.20
2023-04-12T07:49:31.066Z,14.57
2023-04-12T07:52:02.695Z,14.90
2023-04-12T07:54:43.950Z,13.82
2023-04-12T08:00:07.720Z,13.75
2023-04-12T08:02:45.377Z,16.60
2023-04-12T08:05:15.426Z,15.88
2023-04-12T08:07:59.317Z,14.95
2023-04-12T08:10:42.239Z,14.88
2023-04-12T08:13:28.241Z,15.07
2023-04-12T08:15:58.351Z,15.73
2023-04-12T08:18:29.556Z,14.85
2023-04-12T08:20:58.404Z,15.73
2023-04-12T08:23:27.238Z,14.10
2023-04-12T08:26:03.621Z,14.07
2023-04-12T08:28:33.777Z,14.85
2023-04-12T08:31:04.745Z,14.90
2023-04-12T08:33:33.844Z,14.32
2023-04-12T08:36:02.197Z,13.25
2023-04-12T08:38:44.216Z,12.82
2023-04-12T08:41:16.578Z,13.80
2023-04-12T08:43:47.603Z,12.80
2023-04-12T08:46:16.201Z,12.70
2023-04-12T08:48:50.815Z,12.18
2023-04-12T08:51:21.966Z,13.45
2023-04-12T08:53:51.137Z,15.10
2023-04-12T08:56:23.734Z,15.55
2023-04-12T08:58:52.183Z,17.80
2023-04-12T09:01:21.527Z,16.70
2023-04-12T09:03:52.796Z,18.85
2023-04-12T09:06:44.952Z,18.13
2023-04-12T09:09:12.982Z,18.92
2023-04-12T09:11:44.308Z,18.35
2023-04-12T09:14:23.439Z,14.75
2023-04-12T09:16:55.521Z,16.00
2023-04-12T09:19:37.723Z,17.20
2023-04-12T09:22:05.805Z,15.20
2023-04-12T09:24:47.840Z,14.65
2023-04-12T09:27:21.399Z,13.20
2023-04-12T09:29:52.108Z,12.55
2023-04-12T09:32:40.331Z,12.10
2023-04-12T09:35:10.297Z,12.48
2023-04-12T09:37:39.845Z,13.20
2023-04-12T09:40:11.412Z,11.75
2023-04-12T09:42:53.864Z,9.98
2023-04-12T09:45:28.239Z,11.25
2023-04-12T09:47:59.513Z,11.57
2023-04-12T09:50:28.997Z,12.38
2023-04-12T09:53:02.442Z,11.50
2023-04-12T09:55:32.528Z,10.10
2023-04-12T09:58:21.605Z,11.50
2023-04-12T10:00:53.762Z,12.88
2023-04-12T10:03:25.260Z,11.27
2023-04-12T10:05:56.470Z,13.82
2023-04-12T10:08:26.876Z,13.43
2023-04-12T10:10:55.648Z,14.77
2023-04-12T10:13:24.251Z,14.90
2023-04-12T10:15:56.563Z,17.27
2023-04-12T10:18:24.761Z,15.07
2023-04-12T10:20:55.498Z,13.27
2023-04-12T10:23:25.836Z,15.63
2023-04-12T10:25:55.836Z,15.93
2023-04-12T10:28:25.335Z,15.48
2023-04-12T10:30:57.974Z,15.77
2023-04-12T10:33:34.325Z,15.95
2023-04-12T10:36:11.442Z,15.43
2023-04-12T10:39:12.422Z,16.15
2023-04-12T10:42:01.824Z,17.27
2023-04-12T10:44:30.124Z,16.90
2023-04-12T10:47:00.732Z,18.75
2023-04-12T10:49:29.316Z,18.10
2023-04-12T10:52:02.898Z,22.48
2023-04-12T10:54:35.490Z,22.83
2023-04-12T10:57:06.042Z,21.75
2023-04-12T10:59:52.752Z,22.27
2023-04-12T11:02:22.523Z,22.98
2023-04-12T11:05:11.715Z,24.52
2023-04-12T11:08:06.350Z,25.48
2023-04-12T11:10:41.673Z,24.95
2023-04-12T11:13:16.000Z,26.27
2023-04-12T11:15:44.095Z,24.50
2023-04-12T11:18:15.035Z,23.17
2023-04-12T11:20:43.210Z,25.42
2023-04-12T11:23:11.777Z,25.63
2023-04-12T11:25:41.016Z,24.52
2023-04-12T11:28:25.205Z,23.70
2023-04-12T11:30:56.969Z,23.08
2023-04-12T11:33:42.540Z,24.33
2023-04-12T11:36:14.669Z,21.40
2023-04-12T11:38:49.974Z,22.88
2023-04-12T11:41:18.904Z,24.20
2023-04-12T11:43:49.849Z,21.02
2023-04-12T11:46:39.321Z,22.27
2023-04-12T11:49:09.815Z,19.10
2023-04-12T11:51:40.670Z,22.42
2023-04-12T11:54:29.809Z,24.48
2023-04-12T11:56:58.267Z,28.98
2023-04-12T11:59:54.722Z,23.58
2023-04-12T12:02:24.608Z,22.38
2023-04-12T12:04:56.849Z,21.70
2023-04-12T12:07:25.199Z,17.88
2023-04-12T12:09:57.222Z,17.15
2023-04-12T12:12:25.748Z,17.83
2023-04-12T12:14:54.593Z,16.92
2023-04-12T12:17:22.605Z,17.20
2023-04-12T12:19:51.288Z,17.92
2023-04-12T12:22:21.855Z,17.60
2023-04-12T12:24:57.835Z,18.05
2023-04-12T12:27:35.792Z,16.80
2023-04-12T12:30:08.170Z,18.25
2023-04-12T12:33:19.780Z,17.42
2023-04-12T12:35:48.410Z,17.40
2023-04-12T12:38:16.631Z,16.75
2023-04-12T12:40:45.695Z,15.95
2023-04-12T12:43:20.724Z,15.60
2023-04-12T12:45:49.449Z,16.17
2023-04-12T12:48:21.644Z,17.38
2023-04-12T12:50:50.211Z,18.52
2023-04-12T12:53:18.408Z,19.02
2023-04-12T12:55:50.573Z,19.50
2023-04-12T12:58:23.730Z,17.60
2023-04-12T13:00:55.911Z,18.25
2023-04-12T13:03:26.699Z,18.83
2023-04-12T13:05:56.884Z,18.52
2023-04-12T13:08:58.642Z,19.40
2023-04-12T13:11:33.233Z,20.38
2023-04-12T13:14:03.077Z,21.30
2023-04-12T13:16:34.563Z,18.33
2023-04-12T13:19:11.731Z,20.65
2023-04-12T13:21:44.584Z,18.73
2023-04-12T13:24:14.493Z,19.38
2023-04-12T13:26:51.860Z,18.20
2023-04-12T13:29:19.892Z,19.80
2023-04-12T13:31:50.967Z,19.65
2023-04-12T13:34:23.669Z,21.13
2023-04-12T13:36:52.334Z,22.05
2023-04-12T13:39:25.562Z,20.50
2023-04-12T13:41:54.221Z,21.02
2023-04-12T13:44:23.214Z,19.52
2023-04-12T13:46:55.101Z,18.48
2023-04-12T13:49:23.108Z,19.67
2023-04-12T13:51:51.982Z,18.77
2023-04-12T13:54:22.861Z,18.38
2023-04-12T13:56:51.453Z,19.88
2023-04-12T13:59:20.018Z,19.50
2023-04-12T14:01:48.231Z,21.65
2023-04-12T14:04:16.449Z,22.75
2023-04-12T14:06:45.767Z,21.73
2023-04-12T14:09:29.540Z,19.95
2023-04-12T14:11:58.524Z,18.45
2023-04-12T14:14:28.058Z,17.55
2023-04-12T14:16:57.412Z,19.63
2023-04-12T14:19:25.724Z,21.42
2023-04-12T14:21:54.025Z,20.58
2023-04-12T14:24:28.442Z,25.70
2023-04-12T14:26:59.602Z,24.33
2023-04-12T14:29:27.957Z,22.52
2023-04-12T14:32:02.075Z,21.10
2023-04-12T14:34:31.604Z,20.75
2023-04-12T14:37:03.038Z,19.35
2023-04-12T14:39:31.525Z,20.00
2023-04-12T14:42:03.941Z,18.63
2023-04-12T14:44:35.873Z,19.33
2023-04-12T19:40:33.866Z,17.92
2023-04-12T19:43:01.895Z,18.40
2023-04-12T19:45:30.702Z,18.45
2023-04-12T19:47:58.847Z,18.33
2023-04-12T19:50:31.048Z,17.55
2023-04-12T19:52:59.472Z,18.67
2023-04-12T19:55:28.309Z,18.90
2023-04-12T19:57:58.730Z,18.20
2023-04-12T20:00:27.422Z,18.30
2023-04-12T20:02:55.801Z,18.38
2023-04-12T20:05:24.422Z,19.38
2023-04-12T20:07:56.218Z,18.10
2023-04-12T20:10:24.899Z,18.30
2023-04-12T20:12:53.488Z,18.98
2023-04-12T20:15:22.882Z,18.70
2023-04-12T20:17:52.183Z,17.85
2023-04-12T20:20:22.320Z,18.60
2023-04-12T20:22:53.718Z,18.45
2023-04-12T20:25:21.996Z,17.20
2023-04-12T20:27:52.422Z,18.05
2023-04-12T20:30:21.272Z,17.45
2023-04-12T20:33:06.987Z,16.92
2023-04-12T20:35:36.965Z,16.77
2023-04-12T20:38:07.329Z,14.95
2023-04-12T20:40:35.997Z,15.35
2023-04-12T20:43:06.055Z,15.18
2023-04-12T20:45:35.032Z,14.57
2023-04-12T20:48:03.328Z,15.32
2023-04-12T20:50:33.167Z,14.75
2023-04-12T20:53:05.524Z,13.90
2023-04-12T20:55:35.057Z,13.07
2023-04-12T20:58:23.430Z,13.90
2023-04-12T21:00:54.979Z,12.85
2023-04-12T21:03:28.837Z,14.43
2023-04-12T21:05:57.824Z,13.80
2023-04-12T21:08:31.688Z,14.85
2023-04-12T21:11:01.516Z,14.23
2023-04-12T21:13:33.565Z,15.15
2023-04-12T21:16:04.237Z,14.60
2023-04-12T21:18:34.529Z,15.32
2023-04-12T21:21:02.711Z,15.68
2023-04-12T21:23:31.281Z,15.95
2023-04-12T21:25:59.301Z,15.07
2023-04-12T21:28:29.712Z,15.25
2023-04-12T21:30:58.496Z,14.20
2023-04-12T21:33:27.093Z,15.80
2023-04-12T21:35:56.510Z,15.93
2023-04-12T21:38:25.315Z,14.98
2023-04-12T21:40:57.455Z,15.20
2023-04-12T21:43:27.049Z,14.52
2023-04-12T21:45:55.117Z,16.10
2023-04-12T21:48:23.109Z,15.52
2023-04-12T21:50:51.810Z,15.75
2023-04-12T21:53:19.760Z,16.23
2023-04-12T21:55:50.317Z,17.65
2023-04-12T21:58:18.262Z,16.65
2023-04-12T22:00:48.049Z,17.67
2023-04-12T22:03:16.351Z,18.38
2023-04-12T22:05:51.174Z,27.52
2023-04-12T22:08:26.461Z,23.95
2023-04-12T22:10:54.571Z,28.35
2023-04-12T22:13:25.294Z,30.02
2023-04-12T22:15:55.301Z,41.85
2023-04-12T22:18:23.658Z,43.20
2023-04-12T22:20:55.485Z,41.90
2023-04-12T22:23:24.204Z,34.55
2023-04-12T22:25:58.435Z,29.70
2023-04-12T22:28:34.175Z,25.63
2023-04-12T22:31:02.820Z,25.65
2023-04-12T22:33:31.374Z,25.20
2023-04-12T22:36:02.314Z,27.90
2023-04-12T22:38:31.152Z,29.58
2023-04-12T22:41:02.229Z,30.85
2023-04-12T22:43:42.148Z,31.00
2023-04-12T22:46:16.242Z,30.33
2023-04-12T22:48:50.088Z,29.15
2023-04-12T22:51:20.393Z,30.30
2023-04-12T22:53:50.500Z,30.13
2023-04-12T22:56:18.839Z,29.92
2023-04-12T22:58:48.048Z,29.80
2023-04-12T23:01:16.177Z,28.95
2023-04-12T23:03:46.019Z,28.83
2023-04-12T23:06:19.807Z,27.70
2023-04-12T23:08:49.839Z,24.13
2023-04-12T23:11:18.192Z,23.65
2023-04-12T23:13:46.364Z,23.92
2023-04-12T23:16:14.242Z,22.33
2023-04-12T23:18:45.169Z,22.08
2023-04-12T23:21:13.103Z,18.80
2023-04-12T23:23:50.666Z,13.50
2023-04-12T23:26:20.074Z,8.95
2023-04-12T23:28:48.116Z,7.95
2023-04-12T23:31:17.013Z,6.93
2023-04-12T23:33:45.545Z,7.07
2023-04-12T23:36:14.227Z,4.90
2023-04-12T23:38:44.687Z,5.57
2023-04-12T23:41:15.297Z,5.35
2023-04-12T23:43:44.684Z,5.85
2023-04-12T23:46:13.803Z,5.85
2023-04-12T23:48:42.905Z,5.93
2023-04-12T23:51:10.955Z,5.97
2023-04-12T23:53:38.953Z,5.97
2023-04-12T23:56:08.226Z,5.60
2023-04-12T23:58:36.732Z,5.38
